sensor_id;sensor_type;location;lat;lon;timestamp;temperature;humidity
40323;DHT22;26030;51.164;17.100;2022-12-18T00:00:29;21.20;50.30
40323;DHT22;26030;51.164;17.100;2022-12-18T00:05:58;21.30;50.00
40323;DHT22;26030;51.164;17.100;2022-12-18T00:11:06;21.20;50.90
40323;DHT22;26030;51.164;17.100;2022-12-18T00:16:13;21.20;52.20
40323;DHT22;26030;51.164;17.100;2022-12-18T00:21:37;21.20;51.70
40323;DHT22;26030;51.164;17.100;2022-12-18T00:26:53;21.10;51.50
40323;DHT22;26030;51.164;17.100;2022-12-18T00:31:57;21.20;51.30
40323;DHT22;26030;51.164;17.100;2022-12-18T00:37:06;21.00;51.10
40323;DHT22;26030;51.164;17.100;2022-12-18T00:42:14;21.00;51.10
40323;DHT22;26030;51.164;17.100;2022-12-18T00:47:49;21.00;50.50
40323;DHT22;26030;51.164;17.100;2022-12-18T00:52:53;21.00;50.60
40323;DHT22;26030;51.164;17.100;2022-12-18T00:58:00;20.90;50.90
40323;DHT22;26030;51.164;17.100;2022-12-18T01:03:12;21.00;50.90
40323;DHT22;26030;51.164;17.100;2022-12-18T01:08:25;21.40;50.60
40323;DHT22;26030;51.164;17.100;2022-12-18T01:13:31;21.70;49.30
40323;DHT22;26030;51.164;17.100;2022-12-18T01:18:40;22.00;48.70
40323;DHT22;26030;51.164;17.100;2022-12-18T01:23:44;22.20;48.10
40323;DHT22;26030;51.164;17.100;2022-12-18T01:28:49;22.40;47.70
40323;DHT22;26030;51.164;17.100;2022-12-18T01:33:53;22.50;47.30
40323;DHT22;26030;51.164;17.100;2022-12-18T01:39:05;22.60;47.00
40323;DHT22;26030;51.164;17.100;2022-12-18T01:50:43;22.80;46.70
40323;DHT22;26030;51.164;17.100;2022-12-18T01:55:38;22.90;46.50
40323;DHT22;26030;51.164;17.100;2022-12-18T02:00:46;22.90;46.50
40323;DHT22;26030;51.164;17.100;2022-12-18T02:26:56;23.00;46.30
40323;DHT22;26030;51.164;17.100;2022-12-18T02:32:06;22.90;46.30
40323;DHT22;26030;51.164;17.100;2022-12-18T02:37:15;22.80;46.40
40323;DHT22;26030;51.164;17.100;2022-12-18T02:42:23;22.70;46.50
40323;DHT22;26030;51.164;17.100;2022-12-18T02:47:29;22.60;47.40
40323;DHT22;26030;51.164;17.100;2022-12-18T02:52:46;22.40;47.00
40323;DHT22;26030;51.164;17.100;2022-12-18T02:58:11;22.30;47.20
40323;DHT22;26030;51.164;17.100;2022-12-18T03:08:46;22.00;47.70
40323;DHT22;26030;51.164;17.100;2022-12-18T03:13:55;21.90;47.90
40323;DHT22;26030;51.164;17.100;2022-12-18T03:19:03;21.70;48.20
40323;DHT22;26030;51.164;17.100;2022-12-18T03:24:12;21.70;48.20
40323;DHT22;26030;51.164;17.100;2022-12-18T03:34:42;21.60;48.30
40323;DHT22;26030;51.164;17.100;2022-12-18T03:39:48;21.50;48.40
40323;DHT22;26030;51.164;17.100;2022-12-18T03:49:59;21.40;48.50
40323;DHT22;26030;51.164;17.100;2022-12-18T03:55:26;21.30;48.60
40323;DHT22;26030;51.164;17.100;2022-12-18T04:00:36;21.20;48.70
40323;DHT22;26030;51.164;17.100;2022-12-18T04:05:43;21.10;48.80
40323;DHT22;26030;51.164;17.100;2022-12-18T04:10:50;21.20;48.90
40323;DHT22;26030;51.164;17.100;2022-12-18T04:15:54;21.10;48.90
40323;DHT22;26030;51.164;17.100;2022-12-18T04:20:58;21.20;49.20
40323;DHT22;26030;51.164;17.100;2022-12-18T04:26:03;21.50;48.40
40323;DHT22;26030;51.164;17.100;2022-12-18T04:31:26;21.80;48.10
40323;DHT22;26030;51.164;17.100;2022-12-18T04:36:31;22.10;47.40
40323;DHT22;26030;51.164;17.100;2022-12-18T04:41:34;22.30;47.10
40323;DHT22;26030;51.164;17.100;2022-12-18T04:46:39;22.40;46.60
40323;DHT22;26030;51.164;17.100;2022-12-18T04:51:43;22.60;46.40
40323;DHT22;26030;51.164;17.100;2022-12-18T04:56:46;22.60;46.10
40323;DHT22;26030;51.164;17.100;2022-12-18T05:01:51;22.70;46.00
40323;DHT22;26030;51.164;17.100;2022-12-18T05:06:55;22.70;45.90
40323;DHT22;26030;51.164;17.100;2022-12-18T05:11:59;22.70;45.80
40323;DHT22;26030;51.164;17.100;2022-12-18T05:17:03;22.80;45.80
40323;DHT22;26030;51.164;17.100;2022-12-18T05:22:07;22.80;45.80
40323;DHT22;26030;51.164;17.100;2022-12-18T05:27:11;22.90;45.70
40323;DHT22;26030;51.164;17.100;2022-12-18T05:32:15;22.90;45.70
40323;DHT22;26030;51.164;17.100;2022-12-18T05:37:19;22.90;45.60
40323;DHT22;26030;51.164;17.100;2022-12-18T05:42:23;22.90;45.50
40323;DHT22;26030;51.164;17.100;2022-12-18T05:47:27;22.90;45.60
40323;DHT22;26030;51.164;17.100;2022-12-18T05:52:32;22.90;45.50
40323;DHT22;26030;51.164;17.100;2022-12-18T05:57:35;23.00;45.50
40323;DHT22;26030;51.164;17.100;2022-12-18T06:02:39;23.00;45.50
40323;DHT22;26030;51.164;17.100;2022-12-18T06:07:43;23.00;45.70
40323;DHT22;26030;51.164;17.100;2022-12-18T06:12:46;22.90;45.90
40323;DHT22;26030;51.164;17.100;2022-12-18T06:17:50;22.70;46.00
40323;DHT22;26030;51.164;17.100;2022-12-18T06:22:54;22.60;46.60
40323;DHT22;26030;51.164;17.100;2022-12-18T06:27:58;22.50;46.30
40323;DHT22;26030;51.164;17.100;2022-12-18T06:33:02;22.40;46.40
40323;DHT22;26030;51.164;17.100;2022-12-18T06:38:06;22.30;46.70
40323;DHT22;26030;51.164;17.100;2022-12-18T06:43:10;22.20;46.90
40323;DHT22;26030;51.164;17.100;2022-12-18T06:48:14;22.00;47.00
40323;DHT22;26030;51.164;17.100;2022-12-18T06:53:18;21.90;47.10
40323;DHT22;26030;51.164;17.100;2022-12-18T06:58:22;21.80;47.30
40323;DHT22;26030;51.164;17.100;2022-12-18T07:03:26;21.80;47.50
40323;DHT22;26030;51.164;17.100;2022-12-18T07:08:30;21.70;47.60
40323;DHT22;26030;51.164;17.100;2022-12-18T07:13:35;21.60;47.70
40323;DHT22;26030;51.164;17.100;2022-12-18T07:18:41;21.60;47.80
40323;DHT22;26030;51.164;17.100;2022-12-18T07:23:56;21.50;48.10
40323;DHT22;26030;51.164;17.100;2022-12-18T07:29:07;21.50;47.90
40323;DHT22;26030;51.164;17.100;2022-12-18T07:34:15;21.40;47.90
40323;DHT22;26030;51.164;17.100;2022-12-18T07:39:30;21.30;48.50
40323;DHT22;26030;51.164;17.100;2022-12-18T07:44:37;21.30;48.10
40323;DHT22;26030;51.164;17.100;2022-12-18T07:49:49;21.30;48.40
40323;DHT22;26030;51.164;17.100;2022-12-18T07:55:37;21.60;48.10
40323;DHT22;26030;51.164;17.100;2022-12-18T08:01:22;21.90;47.50
40323;DHT22;26030;51.164;17.100;2022-12-18T08:06:48;22.20;47.10
40323;DHT22;26030;51.164;17.100;2022-12-18T08:12:18;22.30;46.70
40323;DHT22;26030;51.164;17.100;2022-12-18T08:17:29;22.40;46.70
40323;DHT22;26030;51.164;17.100;2022-12-18T08:22:39;22.50;46.30
40323;DHT22;26030;51.164;17.100;2022-12-18T08:27:55;22.60;46.30
40323;DHT22;26030;51.164;17.100;2022-12-18T08:33:14;22.60;46.00
40323;DHT22;26030;51.164;17.100;2022-12-18T08:38:25;22.70;46.10
40323;DHT22;26030;51.164;17.100;2022-12-18T08:43:29;22.70;46.10
40323;DHT22;26030;51.164;17.100;2022-12-18T08:48:52;22.70;45.90
40323;DHT22;26030;51.164;17.100;2022-12-18T08:53:58;22.80;46.00
40323;DHT22;26030;51.164;17.100;2022-12-18T08:59:08;22.80;45.90
40323;DHT22;26030;51.164;17.100;2022-12-18T09:04:25;22.80;45.70
40323;DHT22;26030;51.164;17.100;2022-12-18T09:09:28;22.80;45.70
40323;DHT22;26030;51.164;17.100;2022-12-18T09:14:32;22.90;45.80
40323;DHT22;26030;51.164;17.100;2022-12-18T09:19:43;22.80;45.80
40323;DHT22;26030;51.164;17.100;2022-12-18T09:24:51;22.90;45.70
40323;DHT22;26030;51.164;17.100;2022-12-18T09:30:00;22.90;46.00
40323;DHT22;26030;51.164;17.100;2022-12-18T09:35:04;22.90;45.60
40323;DHT22;26030;51.164;17.100;2022-12-18T09:40:21;22.90;45.50
40323;DHT22;26030;51.164;17.100;2022-12-18T09:45:42;22.90;45.50
40323;DHT22;26030;51.164;17.100;2022-12-18T09:50:58;23.00;45.50
40323;DHT22;26030;51.164;17.100;2022-12-18T09:56:17;23.00;45.40
40323;DHT22;26030;51.164;17.100;2022-12-18T10:01:48;23.00;45.40
40323;DHT22;26030;51.164;17.100;2022-12-18T10:07:10;23.00;45.20
40323;DHT22;26030;51.164;17.100;2022-12-18T10:12:46;23.00;45.70
40323;DHT22;26030;51.164;17.100;2022-12-18T10:30:41;23.20;45.10
40323;DHT22;26030;51.164;17.100;2022-12-18T10:35:57;23.20;45.60
40323;DHT22;26030;51.164;17.100;2022-12-18T10:41:03;23.10;47.10
40323;DHT22;26030;51.164;17.100;2022-12-18T10:46:19;23.00;47.10
40323;DHT22;26030;51.164;17.100;2022-12-18T10:51:31;23.00;47.00
40323;DHT22;26030;51.164;17.100;2022-12-18T10:57:14;22.90;47.00
40323;DHT22;26030;51.164;17.100;2022-12-18T11:02:28;22.70;47.00
40323;DHT22;26030;51.164;17.100;2022-12-18T11:08:01;22.50;48.10
40323;DHT22;26030;51.164;17.100;2022-12-18T11:13:37;22.40;47.00
40323;DHT22;26030;51.164;17.100;2022-12-18T11:24:36;22.40;51.20
40323;DHT22;26030;51.164;17.100;2022-12-18T11:29:43;22.40;50.40
40323;DHT22;26030;51.164;17.100;2022-12-18T11:41:00;22.20;50.20
40323;DHT22;26030;51.164;17.100;2022-12-18T11:46:59;22.10;50.60
40323;DHT22;26030;51.164;17.100;2022-12-18T12:19:27;21.70;49.70
40323;DHT22;26030;51.164;17.100;2022-12-18T12:25:18;21.60;49.40
40323;DHT22;26030;51.164;17.100;2022-12-18T12:30:44;21.60;50.00
40323;DHT22;26030;51.164;17.100;2022-12-18T12:36:42;21.50;50.60
40323;DHT22;26030;51.164;17.100;2022-12-18T12:41:51;21.60;50.80
40323;DHT22;26030;51.164;17.100;2022-12-18T12:47:25;21.50;49.70
40323;DHT22;26030;51.164;17.100;2022-12-18T12:52:43;21.40;50.30
40323;DHT22;26030;51.164;17.100;2022-12-18T12:58:15;21.30;49.50
40323;DHT22;26030;51.164;17.100;2022-12-18T13:03:35;21.30;49.30
40323;DHT22;26030;51.164;17.100;2022-12-18T13:08:58;21.20;49.50
40323;DHT22;26030;51.164;17.100;2022-12-18T13:14:19;21.10;50.10
40323;DHT22;26030;51.164;17.100;2022-12-18T13:19:26;21.10;50.40
40323;DHT22;26030;51.164;17.100;2022-12-18T13:24:33;21.10;50.60
40323;DHT22;26030;51.164;17.100;2022-12-18T13:29:42;21.00;50.80
40323;DHT22;26030;51.164;17.100;2022-12-18T13:34:49;21.00;51.20
40323;DHT22;26030;51.164;17.100;2022-12-18T13:40:53;21.00;51.30
40323;DHT22;26030;51.164;17.100;2022-12-18T13:46:04;20.90;50.60
40323;DHT22;26030;51.164;17.100;2022-12-18T13:52:10;20.80;50.50
40323;DHT22;26030;51.164;17.100;2022-12-18T13:57:33;20.70;51.10
40323;DHT22;26030;51.164;17.100;2022-12-18T14:02:50;20.90;51.30
40323;DHT22;26030;51.164;17.100;2022-12-18T14:08:05;21.40;50.00
40323;DHT22;26030;51.164;17.100;2022-12-18T14:13:30;21.70;49.10
40323;DHT22;26030;51.164;17.100;2022-12-18T14:18:56;21.90;49.40
40323;DHT22;26030;51.164;17.100;2022-12-18T14:24:33;22.20;48.50
40323;DHT22;26030;51.164;17.100;2022-12-18T14:29:47;22.20;48.00
40323;DHT22;26030;51.164;17.100;2022-12-18T14:35:12;22.30;48.30
40323;DHT22;26030;51.164;17.100;2022-12-18T14:40:38;22.40;47.70
40323;DHT22;26030;51.164;17.100;2022-12-18T14:45:55;22.60;47.40
40323;DHT22;26030;51.164;17.100;2022-12-18T14:51:15;22.70;47.10
40323;DHT22;26030;51.164;17.100;2022-12-18T15:02:34;22.80;47.30
40323;DHT22;26030;51.164;17.100;2022-12-18T15:07:45;22.90;47.40
40323;DHT22;26030;51.164;17.100;2022-12-18T15:18:02;23.00;46.80
40323;DHT22;26030;51.164;17.100;2022-12-18T15:28:50;23.20;46.60
40323;DHT22;26030;51.164;17.100;2022-12-18T15:39:21;23.20;46.60
40323;DHT22;26030;51.164;17.100;2022-12-18T15:44:36;23.10;46.50
40323;DHT22;26030;51.164;17.100;2022-12-18T15:49:45;22.90;46.40
40323;DHT22;26030;51.164;17.100;2022-12-18T15:55:10;22.80;46.70
40323;DHT22;26030;51.164;17.100;2022-12-18T16:00:38;22.60;47.10
40323;DHT22;26030;51.164;17.100;2022-12-18T16:05:52;22.50;47.30
40323;DHT22;26030;51.164;17.100;2022-12-18T16:11:02;22.30;47.70
40323;DHT22;26030;51.164;17.100;2022-12-18T16:16:11;22.20;47.30
40323;DHT22;26030;51.164;17.100;2022-12-18T16:21:15;22.00;47.40
40323;DHT22;26030;51.164;17.100;2022-12-18T16:26:22;21.90;47.20
40323;DHT22;26030;51.164;17.100;2022-12-18T16:31:26;21.80;49.30
40323;DHT22;26030;51.164;17.100;2022-12-18T16:36:30;21.70;51.10
40323;DHT22;26030;51.164;17.100;2022-12-18T16:41:34;21.60;50.20
40323;DHT22;26030;51.164;17.100;2022-12-18T16:46:42;21.50;49.70
40323;DHT22;26030;51.164;17.100;2022-12-18T16:51:53;21.50;49.30
40323;DHT22;26030;51.164;17.100;2022-12-18T16:56:57;21.50;50.00
40323;DHT22;26030;51.164;17.100;2022-12-18T17:02:01;21.40;49.50
40323;DHT22;26030;51.164;17.100;2022-12-18T17:07:06;21.30;49.20
40323;DHT22;26030;51.164;17.100;2022-12-18T17:12:10;21.30;49.20
40323;DHT22;26030;51.164;17.100;2022-12-18T17:17:15;21.30;49.30
40323;DHT22;26030;51.164;17.100;2022-12-18T17:22:25;21.20;49.70
40323;DHT22;26030;51.164;17.100;2022-12-18T17:27:29;21.10;49.10
40323;DHT22;26030;51.164;17.100;2022-12-18T17:32:32;21.20;49.00
40323;DHT22;26030;51.164;17.100;2022-12-18T17:37:36;21.10;48.80
40323;DHT22;26030;51.164;17.100;2022-12-18T17:42:40;21.20;49.50
40323;DHT22;26030;51.164;17.100;2022-12-18T17:47:47;21.70;48.40
40323;DHT22;26030;51.164;17.100;2022-12-18T17:52:54;22.10;47.60
40323;DHT22;26030;51.164;17.100;2022-12-18T17:57:59;22.30;47.40
40323;DHT22;26030;51.164;17.100;2022-12-18T18:03:07;22.60;46.40
40323;DHT22;26030;51.164;17.100;2022-12-18T18:08:11;22.70;46.40
40323;DHT22;26030;51.164;17.100;2022-12-18T18:13:23;22.80;46.00
40323;DHT22;26030;51.164;17.100;2022-12-18T18:18:49;23.00;46.50
40323;DHT22;26030;51.164;17.100;2022-12-18T18:23:53;23.00;46.20
40323;DHT22;26030;51.164;17.100;2022-12-18T18:29:04;23.00;45.70
40323;DHT22;26030;51.164;17.100;2022-12-18T18:34:13;23.00;45.20
40323;DHT22;26030;51.164;17.100;2022-12-18T18:39:18;23.00;45.30
40323;DHT22;26030;51.164;17.100;2022-12-18T18:44:23;23.10;44.80
40323;DHT22;26030;51.164;17.100;2022-12-18T18:49:30;23.10;44.50
40323;DHT22;26030;51.164;17.100;2022-12-18T18:54:34;23.10;44.20
40323;DHT22;26030;51.164;17.100;2022-12-18T18:59:38;23.20;44.10
40323;DHT22;26030;51.164;17.100;2022-12-18T19:04:47;23.30;44.50
40323;DHT22;26030;51.164;17.100;2022-12-18T19:09:52;23.10;44.60
40323;DHT22;26030;51.164;17.100;2022-12-18T19:14:56;23.00;44.50
40323;DHT22;26030;51.164;17.100;2022-12-18T19:20:02;22.90;44.80
40323;DHT22;26030;51.164;17.100;2022-12-18T19:25:16;22.80;46.00
40323;DHT22;26030;51.164;17.100;2022-12-18T19:30:29;22.60;45.70
40323;DHT22;26030;51.164;17.100;2022-12-18T19:36:13;22.50;46.20
40323;DHT22;26030;51.164;17.100;2022-12-18T19:41:18;22.40;46.60
40323;DHT22;26030;51.164;17.100;2022-12-18T19:46:49;22.20;45.40
40323;DHT22;26030;51.164;17.100;2022-12-18T19:52:06;22.10;46.60
40323;DHT22;26030;51.164;17.100;2022-12-18T19:57:28;22.00;45.80
40323;DHT22;26030;51.164;17.100;2022-12-18T20:02:35;21.90;46.00
40323;DHT22;26030;51.164;17.100;2022-12-18T20:07:57;21.80;45.40
40323;DHT22;26030;51.164;17.100;2022-12-18T20:13:18;21.80;45.60
40323;DHT22;26030;51.164;17.100;2022-12-18T20:18:32;21.70;46.70
40323;DHT22;26030;51.164;17.100;2022-12-18T20:23:37;21.60;46.70
40323;DHT22;26030;51.164;17.100;2022-12-18T20:28:44;21.50;46.90
40323;DHT22;26030;51.164;17.100;2022-12-18T20:34:00;21.40;46.60
40323;DHT22;26030;51.164;17.100;2022-12-18T20:39:32;21.40;47.90
40323;DHT22;26030;51.164;17.100;2022-12-18T20:45:00;21.30;46.30
40323;DHT22;26030;51.164;17.100;2022-12-18T20:50:07;21.20;46.90
40323;DHT22;26030;51.164;17.100;2022-12-18T20:55:15;21.10;46.60
40323;DHT22;26030;51.164;17.100;2022-12-18T21:00:28;21.10;46.30
40323;DHT22;26030;51.164;17.100;2022-12-18T21:06:10;21.50;45.80
40323;DHT22;26030;51.164;17.100;2022-12-18T21:11:38;21.90;45.30
40323;DHT22;26030;51.164;17.100;2022-12-18T21:17:36;22.00;45.00
40323;DHT22;26030;51.164;17.100;2022-12-18T21:23:07;22.30;44.70
40323;DHT22;26030;51.164;17.100;2022-12-18T21:28:41;22.40;44.60
40323;DHT22;26030;51.164;17.100;2022-12-18T21:34:03;22.60;44.70
40323;DHT22;26030;51.164;17.100;2022-12-18T21:39:10;22.70;44.80
40323;DHT22;26030;51.164;17.100;2022-12-18T21:44:16;22.80;44.80
40323;DHT22;26030;51.164;17.100;2022-12-18T21:49:21;22.90;44.20
40323;DHT22;26030;51.164;17.100;2022-12-18T21:54:28;22.70;43.90
40323;DHT22;26030;51.164;17.100;2022-12-18T21:59:44;22.70;43.90
40323;DHT22;26030;51.164;17.100;2022-12-18T22:04:55;22.70;44.20
40323;DHT22;26030;51.164;17.100;2022-12-18T22:09:59;22.50;44.30
40323;DHT22;26030;51.164;17.100;2022-12-18T22:15:04;22.50;44.70
40323;DHT22;26030;51.164;17.100;2022-12-18T22:20:11;22.60;44.60
40323;DHT22;26030;51.164;17.100;2022-12-18T22:25:15;22.70;44.30
40323;DHT22;26030;51.164;17.100;2022-12-18T22:30:23;22.80;44.20
40323;DHT22;26030;51.164;17.100;2022-12-18T22:35:27;22.90;44.80
40323;DHT22;26030;51.164;17.100;2022-12-18T22:40:42;22.90;44.50
40323;DHT22;26030;51.164;17.100;2022-12-18T22:45:46;22.90;44.60
40323;DHT22;26030;51.164;17.100;2022-12-18T22:50:52;22.90;44.60
40323;DHT22;26030;51.164;17.100;2022-12-18T22:56:04;22.80;44.70
40323;DHT22;26030;51.164;17.100;2022-12-18T23:01:16;22.90;44.60
40323;DHT22;26030;51.164;17.100;2022-12-18T23:06:23;22.90;45.00
40323;DHT22;26030;51.164;17.100;2022-12-18T23:11:30;22.90;46.20
40323;DHT22;26030;51.164;17.100;2022-12-18T23:16:35;22.90;46.90
40323;DHT22;26030;51.164;17.100;2022-12-18T23:21:49;23.00;47.30
40323;DHT22;26030;51.164;17.100;2022-12-18T23:26:53;23.10;47.30
40323;DHT22;26030;51.164;17.100;2022-12-18T23:31:57;22.90;47.90
40323;DHT22;26030;51.164;17.100;2022-12-18T23:37:01;22.80;48.10
40323;DHT22;26030;51.164;17.100;2022-12-18T23:42:06;22.60;48.10
40323;DHT22;26030;51.164;17.100;2022-12-18T23:47:09;22.60;48.60
40323;DHT22;26030;51.164;17.100;2022-12-18T23:52:13;22.40;48.70
40323;DHT22;26030;51.164;17.100;2022-12-18T23:57:17;22.30;48.60
